sensor_id;sensor_type;location;lat;lon;timestamp;P1;P2;P0
75960;PMS7003;64644;48.914;2.254;2023-06-22T00:01:03;4.00;4.00;3.25
75960;PMS7003;64644;48.914;2.254;2023-06-22T00:03:28;4.00;4.00;3.00
75960;PMS7003;64644;48.914;2.254;2023-06-22T00:05:54;4.75;4.50;3.00
75960;PMS7003;64644;48.914;2.254;2023-06-22T00:08:19;4.00;4.00;3.00
75960;PMS7003;64644;48.914;2.254;2023-06-22T00:10:45;4.50;4.50;3.00
75960;PMS7003;64644;48.914;2.254;2023-06-22T00:13:11;6.50;5.00;4.00
75960;PMS7003;64644;48.914;2.254;2023-06-22T00:15:38;5.75;4.25;3.50
75960;PMS7003;64644;48.914;2.254;2023-06-22T00:18:06;4.00;4.00;3.00
75960;PMS7003;64644;48.914;2.254;2023-06-22T00:20:32;4.00;4.00;3.00
75960;PMS7003;64644;48.914;2.254;2023-06-22T00:22:58;3.75;3.75;3.00
75960;PMS7003;64644;48.914;2.254;2023-06-22T00:25:24;5.00;5.00;3.00
75960;PMS7003;64644;48.914;2.254;2023-06-22T00:27:50;3.75;3.75;3.25
75960;PMS7003;64644;48.914;2.254;2023-06-22T00:30:16;6.00;4.00;3.75
75960;PMS7003;64644;48.914;2.254;2023-06-22T00:32:42;7.00;5.00;3.00
75960;PMS7003;64644;48.914;2.254;2023-06-22T00:35:11;3.75;3.75;2.50
75960;PMS7003;64644;48.914;2.254;2023-06-22T00:37:37;4.50;4.00;3.25
75960;PMS7003;64644;48.914;2.254;2023-06-22T00:40:03;5.75;5.75;3.00
75960;PMS7003;64644;48.914;2.254;2023-06-22T00:42:30;3.75;3.75;3.00
75960;PMS7003;64644;48.914;2.254;2023-06-22T00:44:55;3.00;3.00;3.00
75960;PMS7003;64644;48.914;2.254;2023-06-22T00:47:21;2.00;2.00;2.00
75960;PMS7003;64644;48.914;2.254;2023-06-22T00:49:47;6.50;5.25;4.25
75960;PMS7003;64644;48.914;2.254;2023-06-22T00:52:16;7.25;7.25;4.00
75960;PMS7003;64644;48.914;2.254;2023-06-22T00:54:49;5.00;5.00;3.50
75960;PMS7003;64644;48.914;2.254;2023-06-22T00:57:16;4.00;4.00;3.00
75960;PMS7003;64644;48.914;2.254;2023-06-22T00:59:42;5.00;4.50;3.75
75960;PMS7003;64644;48.914;2.254;2023-06-22T01:02:09;4.00;4.00;3.50
75960;PMS7003;64644;48.914;2.254;2023-06-22T01:04:36;3.50;3.50;3.00
75960;PMS7003;64644;48.914;2.254;2023-06-22T01:09:35;4.00;4.00;3.00
75960;PMS7003;64644;48.914;2.254;2023-06-22T01:12:11;5.00;4.75;4.00
75960;PMS7003;64644;48.914;2.254;2023-06-22T01:14:43;5.25;4.75;3.00
75960;PMS7003;64644;48.914;2.254;2023-06-22T01:17:12;5.75;4.75;4.25
75960;PMS7003;64644;48.914;2.254;2023-06-22T01:19:59;5.00;5.00;4.00
75960;PMS7003;64644;48.914;2.254;2023-06-22T01:22:30;3.75;3.75;3.00
75960;PMS7003;64644;48.914;2.254;2023-06-22T01:25:07;5.75;5.75;3.00
75960;PMS7003;64644;48.914;2.254;2023-06-22T01:27:40;6.00;4.50;3.50
75960;PMS7003;64644;48.914;2.254;2023-06-22T01:30:18;4.00;4.00;3.00
75960;PMS7003;64644;48.914;2.254;2023-06-22T01:32:44;4.50;4.50;3.50
75960;PMS7003;64644;48.914;2.254;2023-06-22T01:35:10;5.00;5.00;4.00
75960;PMS7003;64644;48.914;2.254;2023-06-22T01:37:37;4.00;4.00;4.00
75960;PMS7003;64644;48.914;2.254;2023-06-22T01:40:03;5.00;5.00;3.25
75960;PMS7003;64644;48.914;2.254;2023-06-22T01:42:31;6.00;5.00;3.00
75960;PMS7003;64644;48.914;2.254;2023-06-22T01:44:57;7.25;6.75;4.50
75960;PMS7003;64644;48.914;2.254;2023-06-22T01:47:24;3.75;3.50;2.75
75960;PMS7003;64644;48.914;2.254;2023-06-22T01:49:50;5.25;5.25;4.50
75960;PMS7003;64644;48.914;2.254;2023-06-22T01:52:16;4.25;4.25;3.00
75960;PMS7003;64644;48.914;2.254;2023-06-22T01:54:42;4.00;4.00;2.00
75960;PMS7003;64644;48.914;2.254;2023-06-22T01:57:08;5.25;4.50;4.25
75960;PMS7003;64644;48.914;2.254;2023-06-22T01:59:37;5.75;5.50;3.50
75960;PMS7003;64644;48.914;2.254;2023-06-22T02:02:09;6.00;5.00;3.25
75960;PMS7003;64644;48.914;2.254;2023-06-22T02:04:55;4.75;4.75;4.00
75960;PMS7003;64644;48.914;2.254;2023-06-22T02:07:23;4.50;4.50;3.50
75960;PMS7003;64644;48.914;2.254;2023-06-22T02:09:57;5.25;5.25;3.00
75960;PMS7003;64644;48.914;2.254;2023-06-22T02:12:24;4.00;4.00;2.75
75960;PMS7003;64644;48.914;2.254;2023-06-22T02:14:52;5.50;4.25;2.50
75960;PMS7003;64644;48.914;2.254;2023-06-22T02:17:18;4.75;4.00;2.75
75960;PMS7003;64644;48.914;2.254;2023-06-22T02:19:44;2.25;2.25;2.25
75960;PMS7003;64644;48.914;2.254;2023-06-22T02:22:09;5.25;5.25;3.25
75960;PMS7003;64644;48.914;2.254;2023-06-22T02:24:35;5.50;5.50;3.00
75960;PMS7003;64644;48.914;2.254;2023-06-22T02:27:01;5.75;3.50;2.25
75960;PMS7003;64644;48.914;2.254;2023-06-22T02:29:27;3.75;3.75;2.75
75960;PMS7003;64644;48.914;2.254;2023-06-22T02:31:54;6.00;3.50;3.00
75960;PMS7003;64644;48.914;2.254;2023-06-22T02:34:20;7.00;5.00;3.00
75960;PMS7003;64644;48.914;2.254;2023-06-22T02:36:47;3.00;3.00;3.00
75960;PMS7003;64644;48.914;2.254;2023-06-22T02:39:19;5.75;4.75;3.75
75960;PMS7003;64644;48.914;2.254;2023-06-22T02:41:47;4.75;4.75;3.75
75960;PMS7003;64644;48.914;2.254;2023-06-22T02:44:14;4.00;3.50;3.00
75960;PMS7003;64644;48.914;2.254;2023-06-22T02:46:40;4.25;4.00;3.00
75960;PMS7003;64644;48.914;2.254;2023-06-22T02:49:05;5.00;4.00;4.00
75960;PMS7003;64644;48.914;2.254;2023-06-22T02:51:32;4.00;4.00;3.00
75960;PMS7003;64644;48.914;2.254;2023-06-22T02:53:59;4.75;4.75;2.75
75960;PMS7003;64644;48.914;2.254;2023-06-22T02:56:25;5.75;5.75;4.00
75960;PMS7003;64644;48.914;2.254;2023-06-22T02:58:52;3.00;3.00;2.50
75960;PMS7003;64644;48.914;2.254;2023-06-22T03:01:17;5.00;4.00;3.00
75960;PMS7003;64644;48.914;2.254;2023-06-22T03:03:49;5.00;5.00;3.50
75960;PMS7003;64644;48.914;2.254;2023-06-22T03:06:14;5.25;5.00;4.00
75960;PMS7003;64644;48.914;2.254;2023-06-22T03:08:40;4.75;4.75;4.00
75960;PMS7003;64644;48.914;2.254;2023-06-22T03:11:06;4.00;3.50;3.00
75960;PMS7003;64644;48.914;2.254;2023-06-22T03:13:32;5.50;5.50;4.00
75960;PMS7003;64644;48.914;2.254;2023-06-22T03:15:58;4.75;4.75;3.25
75960;PMS7003;64644;48.914;2.254;2023-06-22T03:18:23;5.75;4.75;3.75
75960;PMS7003;64644;48.914;2.254;2023-06-22T03:20:48;6.75;6.75;4.00
75960;PMS7003;64644;48.914;2.254;2023-06-22T03:23:14;5.00;5.00;4.00
75960;PMS7003;64644;48.914;2.254;2023-06-22T03:25:40;5.00;4.00;3.00
75960;PMS7003;64644;48.914;2.254;2023-06-22T03:28:06;6.00;4.00;3.75
75960;PMS7003;64644;48.914;2.254;2023-06-22T03:30:31;4.25;3.75;2.75
75960;PMS7003;64644;48.914;2.254;2023-06-22T03:32:56;5.00;5.00;3.75
75960;PMS7003;64644;48.914;2.254;2023-06-22T03:35:22;8.00;5.00;4.00
75960;PMS7003;64644;48.914;2.254;2023-06-22T03:37:47;5.75;5.75;4.00
75960;PMS7003;64644;48.914;2.254;2023-06-22T03:40:13;8.50;7.00;4.50
75960;PMS7003;64644;48.914;2.254;2023-06-22T03:42:38;5.00;4.75;4.00
75960;PMS7003;64644;48.914;2.254;2023-06-22T03:45:04;3.00;3.00;3.00
75960;PMS7003;64644;48.914;2.254;2023-06-22T03:47:29;5.50;5.50;4.00
75960;PMS7003;64644;48.914;2.254;2023-06-22T03:49:55;5.00;5.00;4.00
75960;PMS7003;64644;48.914;2.254;2023-06-22T03:52:21;5.75;5.75;4.75
75960;PMS7003;64644;48.914;2.254;2023-06-22T03:54:47;8.00;6.50;5.00
75960;PMS7003;64644;48.914;2.254;2023-06-22T03:57:13;5.00;5.00;4.50
75960;PMS7003;64644;48.914;2.254;2023-06-22T03:59:38;5.50;5.50;3.75
75960;PMS7003;64644;48.914;2.254;2023-06-22T04:02:03;8.75;6.75;4.00
75960;PMS7003;64644;48.914;2.254;2023-06-22T04:04:29;5.00;5.00;4.00
75960;PMS7003;64644;48.914;2.254;2023-06-22T04:06:54;7.75;7.00;5.00
75960;PMS7003;64644;48.914;2.254;2023-06-22T04:09:20;5.00;5.00;4.25
75960;PMS7003;64644;48.914;2.254;2023-06-22T04:11:46;7.25;7.25;4.75
75960;PMS7003;64644;48.914;2.254;2023-06-22T04:14:12;6.25;6.00;4.50
75960;PMS7003;64644;48.914;2.254;2023-06-22T04:16:37;6.75;6.75;4.00
75960;PMS7003;64644;48.914;2.254;2023-06-22T04:19:02;7.75;6.50;4.00
75960;PMS7003;64644;48.914;2.254;2023-06-22T04:21:28;7.50;7.25;5.00
75960;PMS7003;64644;48.914;2.254;2023-06-22T04:23:53;6.00;5.75;5.25
75960;PMS7003;64644;48.914;2.254;2023-06-22T04:26:18;4.00;4.00;3.00
75960;PMS7003;64644;48.914;2.254;2023-06-22T04:28:46;6.00;6.00;5.00
75960;PMS7003;64644;48.914;2.254;2023-06-22T04:31:16;7.25;6.50;4.00
75960;PMS7003;64644;48.914;2.254;2023-06-22T04:33:45;7.25;7.25;5.00
75960;PMS7003;64644;48.914;2.254;2023-06-22T04:36:10;7.75;7.75;5.25
75960;PMS7003;64644;48.914;2.254;2023-06-22T04:38:38;7.00;6.00;4.50
75960;PMS7003;64644;48.914;2.254;2023-06-22T04:41:04;9.00;8.75;6.00
75960;PMS7003;64644;48.914;2.254;2023-06-22T04:43:29;6.00;6.00;5.00
75960;PMS7003;64644;48.914;2.254;2023-06-22T04:45:55;8.75;7.00;5.00
75960;PMS7003;64644;48.914;2.254;2023-06-22T04:48:21;8.00;6.75;5.25
75960;PMS7003;64644;48.914;2.254;2023-06-22T04:50:46;8.25;8.00;6.00
75960;PMS7003;64644;48.914;2.254;2023-06-22T04:53:12;9.75;7.75;5.25
75960;PMS7003;64644;48.914;2.254;2023-06-22T04:55:37;8.00;8.00;5.75
75960;PMS7003;64644;48.914;2.254;2023-06-22T04:58:06;7.25;7.25;5.25
75960;PMS7003;64644;48.914;2.254;2023-06-22T05:00:32;8.25;8.25;6.50
75960;PMS7003;64644;48.914;2.254;2023-06-22T05:03:01;7.75;7.75;6.25
75960;PMS7003;64644;48.914;2.254;2023-06-22T05:05:28;8.50;8.50;6.00
75960;PMS7003;64644;48.914;2.254;2023-06-22T05:07:56;7.00;7.00;5.00
75960;PMS7003;64644;48.914;2.254;2023-06-22T05:10:24;9.25;9.00;6.25
75960;PMS7003;64644;48.914;2.254;2023-06-22T05:12:50;5.50;5.50;4.75
75960;PMS7003;64644;48.914;2.254;2023-06-22T05:15:15;8.75;8.00;7.00
75960;PMS7003;64644;48.914;2.254;2023-06-22T05:17:41;7.75;7.75;6.00
75960;PMS7003;64644;48.914;2.254;2023-06-22T05:20:12;10.25;8.50;5.75
75960;PMS7003;64644;48.914;2.254;2023-06-22T05:22:38;8.50;8.00;6.25
75960;PMS7003;64644;48.914;2.254;2023-06-22T05:25:05;9.50;8.75;6.00
75960;PMS7003;64644;48.914;2.254;2023-06-22T05:27:33;10.50;8.25;6.25
75960;PMS7003;64644;48.914;2.254;2023-06-22T05:29:58;11.00;9.00;6.00
75960;PMS7003;64644;48.914;2.254;2023-06-22T05:32:24;11.00;10.00;7.00
75960;PMS7003;64644;48.914;2.254;2023-06-22T05:34:49;10.75;9.75;7.00
75960;PMS7003;64644;48.914;2.254;2023-06-22T05:37:14;12.50;11.25;8.00
75960;PMS7003;64644;48.914;2.254;2023-06-22T05:39:40;11.00;10.75;8.75
75960;PMS7003;64644;48.914;2.254;2023-06-22T05:42:06;9.50;9.25;7.25
75960;PMS7003;64644;48.914;2.254;2023-06-22T05:44:32;10.50;10.50;7.75
75960;PMS7003;64644;48.914;2.254;2023-06-22T05:46:58;11.75;10.50;8.00
75960;PMS7003;64644;48.914;2.254;2023-06-22T05:49:24;11.00;11.00;8.00
75960;PMS7003;64644;48.914;2.254;2023-06-22T05:51:54;10.00;9.75;8.00
75960;PMS7003;64644;48.914;2.254;2023-06-22T05:54:20;11.25;11.25;8.50
75960;PMS7003;64644;48.914;2.254;2023-06-22T05:56:46;16.00;15.00;10.00
75960;PMS7003;64644;48.914;2.254;2023-06-22T05:59:11;19.75;16.75;11.75
75960;PMS7003;64644;48.914;2.254;2023-06-22T06:01:37;19.50;18.00;12.00
75960;PMS7003;64644;48.914;2.254;2023-06-22T06:04:03;18.75;17.75;12.25
75960;PMS7003;64644;48.914;2.254;2023-06-22T06:06:29;20.00;18.50;12.00
75960;PMS7003;64644;48.914;2.254;2023-06-22T06:08:54;21.25;19.50;11.25
75960;PMS7003;64644;48.914;2.254;2023-06-22T06:11:21;14.75;14.00;10.50
75960;PMS7003;64644;48.914;2.254;2023-06-22T06:13:46;20.25;18.25;12.75
75960;PMS7003;64644;48.914;2.254;2023-06-22T06:16:12;19.50;15.50;12.50
75960;PMS7003;64644;48.914;2.254;2023-06-22T06:18:37;17.00;16.25;11.75
75960;PMS7003;64644;48.914;2.254;2023-06-22T06:21:02;21.00;18.25;12.00
75960;PMS7003;64644;48.914;2.254;2023-06-22T06:23:28;19.75;18.00;12.00
75960;PMS7003;64644;48.914;2.254;2023-06-22T06:25:53;20.00;18.75;12.00
75960;PMS7003;64644;48.914;2.254;2023-06-22T06:28:19;18.50;17.25;11.50
75960;PMS7003;64644;48.914;2.254;2023-06-22T06:30:44;22.25;19.25;12.50
75960;PMS7003;64644;48.914;2.254;2023-06-22T06:33:12;17.50;16.00;12.75
75960;PMS7003;64644;48.914;2.254;2023-06-22T06:35:37;24.00;20.25;13.50
75960;PMS7003;64644;48.914;2.254;2023-06-22T06:38:03;22.00;21.00;13.75
75960;PMS7003;64644;48.914;2.254;2023-06-22T06:40:28;17.75;17.75;13.00
75960;PMS7003;64644;48.914;2.254;2023-06-22T06:42:53;21.00;19.50;14.00
75960;PMS7003;64644;48.914;2.254;2023-06-22T06:45:19;27.00;22.50;14.25
75960;PMS7003;64644;48.914;2.254;2023-06-22T06:47:48;27.25;24.75;15.75
75960;PMS7003;64644;48.914;2.254;2023-06-22T06:50:14;23.00;22.75;14.75
75960;PMS7003;64644;48.914;2.254;2023-06-22T06:52:40;25.00;23.50;14.75
75960;PMS7003;64644;48.914;2.254;2023-06-22T06:55:07;26.00;22.25;13.75
75960;PMS7003;64644;48.914;2.254;2023-06-22T06:57:33;25.00;24.25;15.00
75960;PMS7003;64644;48.914;2.254;2023-06-22T06:59:59;20.25;20.25;14.00
75960;PMS7003;64644;48.914;2.254;2023-06-22T07:02:25;30.75;27.00;17.00
75960;PMS7003;64644;48.914;2.254;2023-06-22T07:04:52;23.25;23.25;14.00
75960;PMS7003;64644;48.914;2.254;2023-06-22T07:07:18;27.25;24.00;15.25
75960;PMS7003;64644;48.914;2.254;2023-06-22T07:09:43;24.75;22.75;15.50
75960;PMS7003;64644;48.914;2.254;2023-06-22T07:12:08;28.25;24.75;16.25
75960;PMS7003;64644;48.914;2.254;2023-06-22T07:14:34;25.75;25.00;15.00
75960;PMS7003;64644;48.914;2.254;2023-06-22T07:16:59;22.50;22.25;15.25
75960;PMS7003;64644;48.914;2.254;2023-06-22T07:19:25;22.75;21.50;13.25
75960;PMS7003;64644;48.914;2.254;2023-06-22T07:21:55;23.75;23.25;15.25
75960;PMS7003;64644;48.914;2.254;2023-06-22T07:24:20;26.00;23.75;16.00
75960;PMS7003;64644;48.914;2.254;2023-06-22T07:26:47;21.75;21.75;13.00
75960;PMS7003;64644;48.914;2.254;2023-06-22T07:29:13;24.25;21.75;13.50
75960;PMS7003;64644;48.914;2.254;2023-06-22T07:31:38;25.00;25.00;15.50
75960;PMS7003;64644;48.914;2.254;2023-06-22T07:34:05;29.25;25.50;16.75
75960;PMS7003;64644;48.914;2.254;2023-06-22T07:36:31;26.75;24.25;16.25
75960;PMS7003;64644;48.914;2.254;2023-06-22T07:38:56;26.75;24.50;16.50
75960;PMS7003;64644;48.914;2.254;2023-06-22T07:41:21;23.50;23.25;17.00
75960;PMS7003;64644;48.914;2.254;2023-06-22T07:43:47;29.25;26.50;18.00
75960;PMS7003;64644;48.914;2.254;2023-06-22T07:46:13;22.75;22.50;14.25
75960;PMS7003;64644;48.914;2.254;2023-06-22T07:48:38;29.00;27.25;17.50
75960;PMS7003;64644;48.914;2.254;2023-06-22T07:51:04;31.50;26.00;18.25
75960;PMS7003;64644;48.914;2.254;2023-06-22T07:53:31;29.50;27.25;19.75
75960;PMS7003;64644;48.914;2.254;2023-06-22T07:55:56;30.50;26.75;18.25
75960;PMS7003;64644;48.914;2.254;2023-06-22T07:58:21;28.00;24.75;18.25
75960;PMS7003;64644;48.914;2.254;2023-06-22T08:00:47;35.00;28.75;18.00
75960;PMS7003;64644;48.914;2.254;2023-06-22T08:03:14;29.50;26.25;18.75
75960;PMS7003;64644;48.914;2.254;2023-06-22T08:05:39;24.75;22.75;17.00
75960;PMS7003;64644;48.914;2.254;2023-06-22T08:08:05;26.50;25.75;17.75
75960;PMS7003;64644;48.914;2.254;2023-06-22T08:10:30;24.75;21.75;13.00
75960;PMS7003;64644;48.914;2.254;2023-06-22T08:12:55;26.25;24.00;17.50
75960;PMS7003;64644;48.914;2.254;2023-06-22T08:15:21;31.25;25.25;17.75
75960;PMS7003;64644;48.914;2.254;2023-06-22T08:17:47;29.00;24.50;16.25
75960;PMS7003;64644;48.914;2.254;2023-06-22T08:20:12;26.50;23.25;16.25
75960;PMS7003;64644;48.914;2.254;2023-06-22T08:22:38;26.50;25.50;18.75
75960;PMS7003;64644;48.914;2.254;2023-06-22T08:25:07;25.50;24.00;15.75
75960;PMS7003;64644;48.914;2.254;2023-06-22T08:27:33;26.75;26.50;20.00
75960;PMS7003;64644;48.914;2.254;2023-06-22T08:29:59;27.50;27.50;17.00
75960;PMS7003;64644;48.914;2.254;2023-06-22T08:32:28;32.50;30.00;19.75
75960;PMS7003;64644;48.914;2.254;2023-06-22T08:34:56;25.25;23.25;16.75
75960;PMS7003;64644;48.914;2.254;2023-06-22T08:37:22;27.25;24.00;17.50
75960;PMS7003;64644;48.914;2.254;2023-06-22T08:39:55;26.75;25.00;19.00
75960;PMS7003;64644;48.914;2.254;2023-06-22T08:42:21;32.25;29.25;18.75
75960;PMS7003;64644;48.914;2.254;2023-06-22T08:44:46;28.50;26.50;20.00
75960;PMS7003;64644;48.914;2.254;2023-06-22T08:47:11;31.50;27.50;19.75
75960;PMS7003;64644;48.914;2.254;2023-06-22T08:49:37;36.75;30.00;19.00
75960;PMS7003;64644;48.914;2.254;2023-06-22T08:52:02;28.50;25.75;17.25
75960;PMS7003;64644;48.914;2.254;2023-06-22T08:54:27;24.50;24.25;18.00
75960;PMS7003;64644;48.914;2.254;2023-06-22T08:56:53;27.00;27.00;19.00
75960;PMS7003;64644;48.914;2.254;2023-06-22T08:59:18;28.75;25.00;16.00
75960;PMS7003;64644;48.914;2.254;2023-06-22T09:01:43;27.00;25.75;16.00
75960;PMS7003;64644;48.914;2.254;2023-06-22T09:04:10;25.50;24.00;15.75
75960;PMS7003;64644;48.914;2.254;2023-06-22T09:06:36;32.00;28.25;18.00
75960;PMS7003;64644;48.914;2.254;2023-06-22T09:09:06;25.00;22.25;15.25
75960;PMS7003;64644;48.914;2.254;2023-06-22T09:11:31;24.25;23.00;14.00
75960;PMS7003;64644;48.914;2.254;2023-06-22T09:13:57;25.25;23.00;14.50
75960;PMS7003;64644;48.914;2.254;2023-06-22T09:16:22;22.50;22.25;14.75
75960;PMS7003;64644;48.914;2.254;2023-06-22T09:18:47;23.75;22.75;15.00
75960;PMS7003;64644;48.914;2.254;2023-06-22T09:21:13;20.00;15.75;11.00
75960;PMS7003;64644;48.914;2.254;2023-06-22T09:23:38;26.00;23.00;16.25
75960;PMS7003;64644;48.914;2.254;2023-06-22T09:26:04;23.25;20.00;13.75
75960;PMS7003;64644;48.914;2.254;2023-06-22T09:28:29;22.00;22.00;13.75
75960;PMS7003;64644;48.914;2.254;2023-06-22T09:30:54;22.75;21.50;15.25
75960;PMS7003;64644;48.914;2.254;2023-06-22T09:33:23;22.25;19.50;13.00
75960;PMS7003;64644;48.914;2.254;2023-06-22T09:35:49;20.25;19.25;13.75
75960;PMS7003;64644;48.914;2.254;2023-06-22T09:38:15;19.75;19.75;13.00
75960;PMS7003;64644;48.914;2.254;2023-06-22T09:40:41;19.75;18.25;11.75
75960;PMS7003;64644;48.914;2.254;2023-06-22T09:43:06;20.00;19.00;12.00
75960;PMS7003;64644;48.914;2.254;2023-06-22T09:45:32;22.25;20.50;13.75
75960;PMS7003;64644;48.914;2.254;2023-06-22T09:47:57;21.00;19.25;12.50
75960;PMS7003;64644;48.914;2.254;2023-06-22T09:50:22;20.50;20.00;11.75
75960;PMS7003;64644;48.914;2.254;2023-06-22T09:52:48;25.00;22.75;13.50
75960;PMS7003;64644;48.914;2.254;2023-06-22T09:55:15;22.50;21.50;13.50
75960;PMS7003;64644;48.914;2.254;2023-06-22T09:57:41;21.50;20.00;13.00
75960;PMS7003;64644;48.914;2.254;2023-06-22T10:00:06;19.75;18.00;13.50
75960;PMS7003;64644;48.914;2.254;2023-06-22T10:02:38;19.00;18.25;12.00
75960;PMS7003;64644;48.914;2.254;2023-06-22T10:05:03;23.50;21.75;14.00
75960;PMS7003;64644;48.914;2.254;2023-06-22T10:07:29;25.50;23.50;14.00
75960;PMS7003;64644;48.914;2.254;2023-06-22T10:09:54;23.25;22.25;14.00
75960;PMS7003;64644;48.914;2.254;2023-06-22T10:12:19;27.00;22.25;14.50
75960;PMS7003;64644;48.914;2.254;2023-06-22T10:14:45;18.00;15.50;10.75
75960;PMS7003;64644;48.914;2.254;2023-06-22T10:17:10;20.00;18.00;12.25
75960;PMS7003;64644;48.914;2.254;2023-06-22T10:19:35;23.00;22.25;15.50
75960;PMS7003;64644;48.914;2.254;2023-06-22T10:22:02;18.50;18.50;12.25
75960;PMS7003;64644;48.914;2.254;2023-06-22T10:24:29;21.00;19.50;12.25
75960;PMS7003;64644;48.914;2.254;2023-06-22T10:26:56;23.50;20.50;13.75
75960;PMS7003;64644;48.914;2.254;2023-06-22T10:29:21;22.25;21.00;13.00
75960;PMS7003;64644;48.914;2.254;2023-06-22T10:31:46;18.25;17.00;11.00
75960;PMS7003;64644;48.914;2.254;2023-06-22T10:34:13;17.00;16.75;13.00
75960;PMS7003;64644;48.914;2.254;2023-06-22T10:36:38;18.50;18.50;12.00
75960;PMS7003;64644;48.914;2.254;2023-06-22T10:39:04;24.50;24.25;15.75
75960;PMS7003;64644;48.914;2.254;2023-06-22T10:41:29;24.75;22.25;14.50
75960;PMS7003;64644;48.914;2.254;2023-06-22T10:43:55;23.25;21.00;14.25
75960;PMS7003;64644;48.914;2.254;2023-06-22T10:46:21;20.00;18.50;13.25
75960;PMS7003;64644;48.914;2.254;2023-06-22T10:48:47;18.25;18.25;12.75
75960;PMS7003;64644;48.914;2.254;2023-06-22T10:51:12;19.25;19.25;12.75
75960;PMS7003;64644;48.914;2.254;2023-06-22T10:53:37;17.00;17.00;12.50
75960;PMS7003;64644;48.914;2.254;2023-06-22T10:56:03;16.75;15.50;11.50
75960;PMS7003;64644;48.914;2.254;2023-06-22T10:58:28;18.75;18.75;13.75
75960;PMS7003;64644;48.914;2.254;2023-06-22T11:00:54;18.25;16.25;10.00
75960;PMS7003;64644;48.914;2.254;2023-06-22T11:03:19;16.75;16.75;11.00
75960;PMS7003;64644;48.914;2.254;2023-06-22T11:05:44;16.75;15.00;11.50
75960;PMS7003;64644;48.914;2.254;2023-06-22T11:08:10;18.00;17.00;11.25
75960;PMS7003;64644;48.914;2.254;2023-06-22T11:10:36;14.75;14.25;11.00
75960;PMS7003;64644;48.914;2.254;2023-06-22T11:13:01;20.25;16.75;13.00
75960;PMS7003;64644;48.914;2.254;2023-06-22T11:15:29;16.00;15.25;12.00
75960;PMS7003;64644;48.914;2.254;2023-06-22T11:17:54;22.50;20.25;14.00
75960;PMS7003;64644;48.914;2.254;2023-06-22T11:20:19;21.00;18.25;13.25
75960;PMS7003;64644;48.914;2.254;2023-06-22T11:22:45;18.00;18.00;13.00
75960;PMS7003;64644;48.914;2.254;2023-06-22T11:25:10;16.00;15.75;10.75
75960;PMS7003;64644;48.914;2.254;2023-06-22T11:27:37;20.00;18.00;13.00
75960;PMS7003;64644;48.914;2.254;2023-06-22T11:30:02;18.00;18.00;12.00
75960;PMS7003;64644;48.914;2.254;2023-06-22T11:32:28;16.75;16.00;12.00
75960;PMS7003;64644;48.914;2.254;2023-06-22T11:34:53;15.50;15.25;11.75
75960;PMS7003;64644;48.914;2.254;2023-06-22T11:37:18;17.25;17.25;12.50
75960;PMS7003;64644;48.914;2.254;2023-06-22T11:39:44;16.75;16.50;11.50
75960;PMS7003;64644;48.914;2.254;2023-06-22T11:42:09;18.25;17.50;12.00
75960;PMS7003;64644;48.914;2.254;2023-06-22T11:44:35;20.25;15.50;11.75
75960;PMS7003;64644;48.914;2.254;2023-06-22T11:47:00;15.75;14.75;11.75
75960;PMS7003;64644;48.914;2.254;2023-06-22T11:49:28;17.00;16.25;13.00
75960;PMS7003;64644;48.914;2.254;2023-06-22T11:51:54;18.25;16.75;12.00
75960;PMS7003;64644;48.914;2.254;2023-06-22T11:54:19;21.00;19.00;12.00
75960;PMS7003;64644;48.914;2.254;2023-06-22T11:56:44;17.75;17.50;12.50
75960;PMS7003;64644;48.914;2.254;2023-06-22T11:59:10;17.25;15.75;11.25
75960;PMS7003;64644;48.914;2.254;2023-06-22T12:01:35;16.25;15.75;11.75
75960;PMS7003;64644;48.914;2.254;2023-06-22T12:04:00;15.50;15.00;11.00
75960;PMS7003;64644;48.914;2.254;2023-06-22T12:06:26;15.25;14.50;10.75
75960;PMS7003;64644;48.914;2.254;2023-06-22T12:08:51;18.75;17.75;13.00
75960;PMS7003;64644;48.914;2.254;2023-06-22T12:11:16;16.75;16.75;12.00
75960;PMS7003;64644;48.914;2.254;2023-06-22T12:13:42;17.00;14.25;11.25
75960;PMS7003;64644;48.914;2.254;2023-06-22T12:16:07;19.25;15.25;10.50
75960;PMS7003;64644;48.914;2.254;2023-06-22T12:18:32;18.00;16.25;12.75
75960;PMS7003;64644;48.914;2.254;2023-06-22T12:20:58;22.25;18.75;12.50
75960;PMS7003;64644;48.914;2.254;2023-06-22T12:23:23;21.25;18.75;12.75
75960;PMS7003;64644;48.914;2.254;2023-06-22T12:25:48;18.00;18.00;13.00
75960;PMS7003;64644;48.914;2.254;2023-06-22T12:28:14;16.75;15.00;11.25
75960;PMS7003;64644;48.914;2.254;2023-06-22T12:30:39;15.00;15.00;12.00
75960;PMS7003;64644;48.914;2.254;2023-06-22T12:33:04;15.50;14.50;10.75
75960;PMS7003;64644;48.914;2.254;2023-06-22T12:35:30;16.75;16.75;12.25
75960;PMS7003;64644;48.914;2.254;2023-06-22T12:37:55;19.25;18.25;13.00
75960;PMS7003;64644;48.914;2.254;2023-06-22T12:40:20;20.50;16.00;11.75
75960;PMS7003;64644;48.914;2.254;2023-06-22T12:42:46;19.25;16.75;11.50
75960;PMS7003;64644;48.914;2.254;2023-06-22T12:45:11;14.25;13.25;10.00
75960;PMS7003;64644;48.914;2.254;2023-06-22T12:47:36;15.25;14.00;10.00
75960;PMS7003;64644;48.914;2.254;2023-06-22T12:50:02;20.00;19.75;12.25
75960;PMS7003;64644;48.914;2.254;2023-06-22T12:52:29;17.50;17.50;12.00
75960;PMS7003;64644;48.914;2.254;2023-06-22T12:54:56;17.00;17.00;13.00
75960;PMS7003;64644;48.914;2.254;2023-06-22T12:57:23;18.50;18.50;13.75
75960;PMS7003;64644;48.914;2.254;2023-06-22T12:59:48;19.50;16.50;13.50
75960;PMS7003;64644;48.914;2.254;2023-06-22T13:02:14;19.75;19.50;15.75
75960;PMS7003;64644;48.914;2.254;2023-06-22T13:04:39;20.75;20.75;14.75
75960;PMS7003;64644;48.914;2.254;2023-06-22T13:07:05;21.00;19.75;13.00
75960;PMS7003;64644;48.914;2.254;2023-06-22T13:09:30;19.00;19.00;14.25
75960;PMS7003;64644;48.914;2.254;2023-06-22T13:11:56;23.00;21.00;16.00
75960;PMS7003;64644;48.914;2.254;2023-06-22T13:14:21;26.50;25.25;15.00
75960;PMS7003;64644;48.914;2.254;2023-06-22T13:16:46;20.50;20.25;15.00
75960;PMS7003;64644;48.914;2.254;2023-06-22T13:19:12;20.75;20.75;15.00
75960;PMS7003;64644;48.914;2.254;2023-06-22T13:21:37;25.75;23.75;16.50
75960;PMS7003;64644;48.914;2.254;2023-06-22T13:24:03;26.25;23.50;16.75
75960;PMS7003;64644;48.914;2.254;2023-06-22T13:26:28;22.00;21.75;17.00
75960;PMS7003;64644;48.914;2.254;2023-06-22T13:28:54;21.50;21.25;15.75
75960;PMS7003;64644;48.914;2.254;2023-06-22T13:31:19;23.00;22.50;15.50
75960;PMS7003;64644;48.914;2.254;2023-06-22T13:33:45;28.00;25.50;15.00
75960;PMS7003;64644;48.914;2.254;2023-06-22T13:36:12;21.00;20.50;15.25
75960;PMS7003;64644;48.914;2.254;2023-06-22T13:38:38;19.25;16.75;12.00
75960;PMS7003;64644;48.914;2.254;2023-06-22T13:41:04;18.75;18.75;14.00
75960;PMS7003;64644;48.914;2.254;2023-06-22T13:43:30;18.75;18.75;12.75
75960;PMS7003;64644;48.914;2.254;2023-06-22T13:45:55;18.25;18.25;14.00
75960;PMS7003;64644;48.914;2.254;2023-06-22T13:48:20;18.75;17.25;14.00
75960;PMS7003;64644;48.914;2.254;2023-06-22T13:50:46;22.50;17.00;13.00
75960;PMS7003;64644;48.914;2.254;2023-06-22T13:53:11;16.00;16.00;12.25
75960;PMS7003;64644;48.914;2.254;2023-06-22T13:55:36;16.75;16.75;12.00
75960;PMS7003;64644;48.914;2.254;2023-06-22T13:58:02;18.75;17.00;12.00